createdAt,value
2023-02-25T00:01:57.850Z,0.72
2023-02-25T00:04:30.499Z,0.69
2023-02-25T00:06:59.875Z,0.64
2023-02-25T00:09:30.698Z,0.63
2023-02-25T00:12:04.833Z,0.61
2023-02-25T00:14:31.957Z,0.61
2023-02-25T00:16:59.893Z,0.55
2023-02-25T00:19:27.596Z,0.54
2023-02-25T00:21:54.833Z,0.53
2023-02-25T00:24:29.967Z,0.53
2023-02-25T00:26:57.314Z,0.52
2023-02-25T00:29:24.468Z,0.53
2023-02-25T00:31:52.193Z,0.53
2023-02-25T00:34:19.311Z,0.55
2023-02-25T00:36:49.043Z,0.55
2023-02-25T00:39:24.040Z,0.58
2023-02-25T00:41:52.115Z,0.62
2023-02-25T00:44:24.981Z,0.63
2023-02-25T00:47:00.387Z,0.68
2023-02-25T00:49:32.394Z,0.71
2023-02-25T00:52:03.794Z,0.73
2023-02-25T00:54:31.168Z,0.71
2023-02-25T00:56:59.475Z,0.69
2023-02-25T00:59:26.687Z,0.72
2023-02-25T01:01:56.885Z,0.78
2023-02-25T01:04:24.405Z,0.84
2023-02-25T01:06:51.747Z,0.82
2023-02-25T01:09:21.991Z,0.82
2023-02-25T01:11:52.614Z,0.87
2023-02-25T01:14:26.670Z,0.95
2023-02-25T01:17:01.402Z,0.99
2023-02-25T01:19:30.813Z,1.03
2023-02-25T01:22:05.326Z,1.08
2023-02-25T01:24:35.647Z,1.13
2023-02-25T01:27:04.707Z,1.16
2023-02-25T01:29:40.696Z,1.17
2023-02-25T01:32:14.865Z,1.18
2023-02-25T01:34:46.638Z,1.23
2023-02-25T01:37:15.558Z,1.25
2023-02-25T01:40:05.586Z,1.23
2023-02-25T01:42:37.563Z,1.21
2023-02-25T01:45:16.594Z,1.17
2023-02-25T01:47:50.390Z,1.14
2023-02-25T01:50:29.994Z,1.11
2023-02-25T01:53:05.675Z,1.11
2023-02-25T01:55:36.827Z,1.11
2023-02-25T01:58:10.046Z,1.12
2023-02-25T02:00:46.278Z,1.11
2023-02-25T02:03:16.595Z,1.13
2023-02-25T02:06:08.980Z,1.15
2023-02-25T02:08:36.944Z,1.21
2023-02-25T02:11:04.939Z,1.17
2023-02-25T02:13:45.557Z,1.19
2023-02-25T02:16:49.015Z,1.21
2023-02-25T02:19:47.711Z,1.21
2023-02-25T02:22:35.272Z,1.23
2023-02-25T02:25:42.584Z,1.24
2023-02-25T02:28:28.567Z,1.23
2023-02-25T02:31:36.448Z,1.25
2023-02-25T02:34:22.894Z,1.21
2023-02-25T02:37:24.737Z,1.23
2023-02-25T02:40:09.496Z,1.20
2023-02-25T02:43:01.639Z,1.18
2023-02-25T02:45:44.379Z,1.16
2023-02-25T02:48:29.413Z,1.14
2023-02-25T02:51:02.543Z,1.11
2023-02-25T02:53:36.647Z,1.08
2023-02-25T02:56:11.350Z,1.07
2023-02-25T02:58:47.464Z,1.05
2023-02-25T03:01:18.370Z,1.01
2023-02-25T03:03:59.934Z,0.99
2023-02-25T03:06:33.635Z,0.98
2023-02-25T03:09:24.497Z,0.94
2023-02-25T03:11:52.184Z,0.88
2023-02-25T03:14:20.081Z,0.86
2023-02-25T03:17:09.613Z,0.83
2023-02-25T03:20:18.270Z,0.86
2023-02-25T03:22:57.236Z,0.86
2023-02-25T03:25:34.570Z,0.85
2023-02-25T03:28:10.613Z,0.85
2023-02-25T03:30:45.290Z,0.87
2023-02-25T03:33:51.131Z,0.86
2023-02-25T03:36:33.647Z,0.82
2023-02-25T03:39:09.907Z,0.82
2023-02-25T03:41:44.687Z,0.82
2023-02-25T03:44:16.844Z,0.79
2023-02-25T03:46:47.184Z,0.78
2023-02-25T03:49:31.643Z,0.78
2023-02-25T03:52:06.714Z,0.71
2023-02-25T03:54:34.503Z,0.69
2023-02-25T03:57:02.086Z,0.66
2023-02-25T03:59:29.738Z,0.62
2023-02-25T04:02:04.621Z,0.59
2023-02-25T04:04:35.883Z,0.53
2023-02-25T04:07:05.968Z,0.47
2023-02-25T04:09:33.010Z,0.44
2023-02-25T04:12:00.490Z,0.43
2023-02-25T04:14:27.610Z,0.34
2023-02-25T04:16:55.262Z,0.20
2023-02-25T04:19:23.399Z,0.15
2023-02-25T04:21:51.041Z,0.08
2023-02-25T04:24:18.415Z,0.00
2023-02-25T04:26:45.495Z,-0.06
2023-02-25T04:29:12.642Z,-0.03
2023-02-25T04:31:41.198Z,-0.01
2023-02-25T04:34:11.166Z,0.01
2023-02-25T04:36:38.296Z,0.00
2023-02-25T04:39:05.563Z,-0.03
2023-02-25T04:41:38.182Z,-0.01
2023-02-25T04:44:07.585Z,-0.04
2023-02-25T04:46:38.332Z,-0.09
2023-02-25T04:49:08.291Z,-0.10
2023-02-25T04:51:37.045Z,-0.14
2023-02-25T04:54:07.427Z,-0.14
2023-02-25T04:56:37.948Z,-0.14
2023-02-25T04:59:06.109Z,-0.17
2023-02-25T05:01:33.602Z,-0.19
2023-02-25T05:04:01.119Z,-0.24
2023-02-25T05:06:28.729Z,-0.25
2023-02-25T05:08:57.727Z,-0.24
2023-02-25T05:11:26.954Z,-0.31
2023-02-25T05:13:57.124Z,-0.36
2023-02-25T05:16:26.294Z,-0.41
2023-02-25T05:18:53.635Z,-0.42
2023-02-25T05:21:23.667Z,-0.44
2023-02-25T05:23:52.143Z,-0.51
2023-02-25T05:26:24.770Z,-0.57
2023-02-25T05:28:53.877Z,-0.62
2023-02-25T05:31:24.045Z,-0.64
2023-02-25T05:33:51.363Z,-0.67
2023-02-25T05:36:19.407Z,-0.65
2023-02-25T05:38:47.431Z,-0.62
2023-02-25T05:41:15.516Z,-0.59
2023-02-25T05:43:45.231Z,-0.62
2023-02-25T05:46:14.097Z,-0.60
2023-02-25T05:48:48.585Z,-0.62
2023-02-25T05:51:19.142Z,-0.65
2023-02-25T05:53:49.077Z,-0.66
2023-02-25T05:56:23.057Z,-0.68
2023-02-25T05:58:50.641Z,-0.68
2023-02-25T06:01:25.234Z,-0.66
2023-02-25T06:03:52.476Z,-0.63
2023-02-25T06:06:24.348Z,-0.64
2023-02-25T06:08:52.498Z,-0.67
2023-02-25T06:11:22.350Z,-0.68
2023-02-25T06:13:51.345Z,-0.70
2023-02-25T06:16:19.206Z,-0.68
2023-02-25T06:18:52.196Z,-0.68
2023-02-25T06:21:20.339Z,-0.68
2023-02-25T06:23:50.753Z,-0.67
2023-02-25T06:26:18.139Z,-0.65
2023-02-25T06:28:45.696Z,-0.68
2023-02-25T06:31:15.376Z,-0.66
2023-02-25T06:33:43.092Z,-0.61
2023-02-25T06:36:10.402Z,-0.57
2023-02-25T06:38:37.960Z,-0.52
2023-02-25T06:41:11.334Z,-0.50
2023-02-25T06:43:38.485Z,-0.46
2023-02-25T06:46:07.560Z,-0.41
2023-02-25T06:48:37.277Z,-0.43
2023-02-25T06:51:09.051Z,-0.39
2023-02-25T06:53:41.547Z,-0.37
2023-02-25T06:56:10.666Z,-0.35
2023-02-25T06:58:38.958Z,-0.36
2023-02-25T07:01:16.631Z,-0.35
2023-02-25T07:03:45.331Z,-0.35
2023-02-25T07:06:16.257Z,-0.35
2023-02-25T07:08:47.413Z,-0.36
2023-02-25T07:11:17.421Z,-0.30
2023-02-25T07:13:47.228Z,-0.33
2023-02-25T07:16:16.904Z,-0.32
2023-02-25T07:18:44.818Z,-0.28
2023-02-25T07:21:13.928Z,-0.28
2023-02-25T07:23:41.135Z,-0.30
2023-02-25T07:26:10.473Z,-0.30
2023-02-25T07:28:37.862Z,-0.34
2023-02-25T07:31:11.252Z,-0.34
2023-02-25T07:33:38.370Z,-0.32
2023-02-25T07:36:09.259Z,-0.30
2023-02-25T07:38:37.647Z,-0.31
2023-02-25T07:41:06.742Z,-0.31
2023-02-25T07:43:33.892Z,-0.36
2023-02-25T07:46:01.644Z,-0.38
2023-02-25T07:48:28.969Z,-0.40
2023-02-25T07:50:56.955Z,-0.43
2023-02-25T07:53:24.129Z,-0.45
2023-02-25T07:55:51.223Z,-0.46
2023-02-25T07:58:21.131Z,-0.48
2023-02-25T08:00:48.212Z,-0.49
2023-02-25T08:03:15.271Z,-0.50
2023-02-25T08:05:42.790Z,-0.47
2023-02-25T08:08:10.240Z,-0.45
2023-02-25T08:10:37.614Z,-0.46
2023-02-25T08:13:04.916Z,-0.50
2023-02-25T08:15:32.460Z,-0.50
2023-02-25T08:17:59.594Z,-0.53
2023-02-25T08:20:26.717Z,-0.52
2023-02-25T08:22:56.889Z,-0.52
2023-02-25T08:25:25.538Z,-0.57
2023-02-25T08:27:53.154Z,-0.61
2023-02-25T08:30:23.037Z,-0.65
2023-02-25T08:32:50.132Z,-0.70
2023-02-25T08:35:17.329Z,-0.74
2023-02-25T08:37:45.459Z,-0.76
2023-02-25T08:40:13.856Z,-0.74
2023-02-25T08:42:40.905Z,-0.68
2023-02-25T08:45:08.467Z,-0.60
2023-02-25T08:47:36.399Z,-0.48
2023-02-25T08:50:05.552Z,-0.31
2023-02-25T08:52:34.999Z,-0.16
2023-02-25T08:55:02.944Z,0.01
2023-02-25T08:57:31.304Z,0.02
2023-02-25T09:00:01.175Z,0.01
2023-02-25T09:02:28.324Z,0.10
2023-02-25T09:04:56.815Z,0.16
2023-02-25T09:07:24.435Z,0.15
2023-02-25T09:09:52.070Z,0.21
2023-02-25T09:12:19.632Z,0.20
2023-02-25T09:14:46.792Z,0.08
2023-02-25T09:17:14.242Z,0.01
2023-02-25T09:19:41.361Z,0.00
2023-02-25T09:22:10.444Z,-0.11
2023-02-25T09:24:37.586Z,-0.12
2023-02-25T09:27:08.483Z,-0.25
2023-02-25T09:29:39.622Z,-0.38
2023-02-25T09:32:17.482Z,-0.46
2023-02-25T09:34:44.612Z,-0.53
2023-02-25T09:37:14.379Z,-0.54
2023-02-25T09:39:44.483Z,-0.56
2023-02-25T09:42:19.648Z,-0.54
2023-02-25T09:44:48.355Z,-0.56
2023-02-25T09:47:22.630Z,-0.54
2023-02-25T09:49:56.986Z,-0.58
2023-02-25T09:52:29.630Z,-0.52
2023-02-25T09:55:08.261Z,-0.42
2023-02-25T09:57:38.380Z,-0.48
2023-02-25T10:00:17.123Z,-0.51
2023-02-25T10:03:02.458Z,-0.55
2023-02-25T10:05:45.107Z,-0.67
2023-02-25T10:08:23.451Z,-0.69
2023-02-25T10:11:09.321Z,-0.76
2023-02-25T10:13:40.648Z,-0.76
2023-02-25T10:16:25.125Z,-0.78
2023-02-25T10:19:19.161Z,-0.81
2023-02-25T10:22:12.363Z,-0.85
2023-02-25T10:24:45.652Z,-0.85
2023-02-25T10:27:15.686Z,-0.88
2023-02-25T10:29:52.700Z,-0.96
2023-02-25T10:32:22.281Z,-0.93
2023-02-25T10:34:52.446Z,-0.98
2023-02-25T10:37:27.202Z,-0.98
2023-02-25T10:39:59.691Z,-1.00
2023-02-25T10:42:27.328Z,-1.04
2023-02-25T10:45:00.591Z,-1.06
2023-02-25T10:47:34.395Z,-1.07
2023-02-25T10:50:23.148Z,-1.02
2023-02-25T10:52:54.520Z,-0.99
2023-02-25T10:55:28.174Z,-0.97
2023-02-25T10:57:55.819Z,-0.99
2023-02-25T11:00:29.202Z,-0.96
2023-02-25T11:03:01.521Z,-0.94
2023-02-25T11:05:40.837Z,-0.92
2023-02-25T11:08:34.260Z,-0.85
2023-02-25T11:11:05.645Z,-0.77
2023-02-25T11:13:36.110Z,-0.70
2023-02-25T11:16:08.468Z,-0.60
2023-02-25T11:18:36.271Z,-0.65
2023-02-25T11:21:11.739Z,-0.64
2023-02-25T11:23:48.876Z,-0.62
2023-02-25T11:26:28.812Z,-0.51
2023-02-25T11:29:02.014Z,-0.49
2023-02-25T11:31:40.087Z,-0.44
2023-02-25T11:34:21.177Z,-0.48
2023-02-25T11:36:50.856Z,-0.36
2023-02-25T11:39:27.936Z,-0.43
2023-02-25T11:41:57.429Z,-0.36
2023-02-25T11:44:42.123Z,-0.39
2023-02-25T11:47:26.106Z,-0.47
2023-02-25T11:50:06.931Z,-0.47
2023-02-25T11:52:46.752Z,-0.52
2023-02-25T11:55:36.801Z,-0.60
2023-02-25T11:58:34.110Z,-0.59
2023-02-25T12:01:04.080Z,-0.53
2023-02-25T12:04:04.900Z,-0.55
2023-02-25T12:06:56.342Z,-0.69
2023-02-25T12:10:05.067Z,-0.67
2023-02-25T12:12:46.025Z,-0.69
2023-02-25T12:15:28.294Z,-0.63
2023-02-25T12:18:26.814Z,-0.65
2023-02-25T12:21:15.799Z,-0.66
2023-02-25T12:24:07.753Z,-0.59
2023-02-25T12:26:53.081Z,-0.53
2023-02-25T12:29:36.017Z,-0.48
2023-02-25T12:32:08.676Z,-0.41
2023-02-25T12:34:51.493Z,-0.38
2023-02-25T12:37:30.986Z,-0.50
2023-02-25T12:40:26.414Z,-0.59
2023-02-25T12:43:28.302Z,-0.46
2023-02-25T12:46:20.871Z,-0.31
2023-02-25T12:49:20.798Z,-0.32
2023-02-25T12:52:25.297Z,-0.40
2023-02-25T12:55:01.374Z,-0.31
2023-02-25T12:57:43.364Z,-0.09
2023-02-25T13:00:22.384Z,-0.07
2023-02-25T13:03:15.592Z,-0.21
2023-02-25T13:06:12.173Z,-0.33
2023-02-25T13:08:49.421Z,-0.52
2023-02-25T13:12:09.389Z,-0.63
2023-02-25T13:14:47.123Z,-0.67
2023-02-25T13:17:30.246Z,-0.66
2023-02-25T13:20:43.343Z,-0.69
2023-02-25T13:23:42.143Z,-0.79
2023-02-25T13:26:33.535Z,-0.83
2023-02-25T13:29:09.065Z,-0.81
2023-02-25T13:31:52.398Z,-0.81
2023-02-25T13:34:42.778Z,-0.71
2023-02-25T13:37:25.230Z,-0.55
2023-02-25T13:40:21.219Z,-0.51
2023-02-25T13:43:15.202Z,-0.43
2023-02-25T13:46:06.566Z,-0.47
2023-02-25T13:48:58.969Z,-0.39
2023-02-25T13:51:48.323Z,-0.36
2023-02-25T13:54:24.991Z,-0.33
2023-02-25T13:57:22.615Z,-0.42
2023-02-25T14:00:35.261Z,-0.42
2023-02-25T14:03:36.415Z,-0.34
2023-02-25T14:06:20.981Z,-0.43
2023-02-25T14:09:09.395Z,-0.43
2023-02-25T14:12:12.070Z,-0.40
2023-02-25T14:14:40.038Z,-0.38
2023-02-25T14:17:24.746Z,-0.68
2023-02-25T14:20:12.639Z,-0.99
2023-02-25T14:23:15.598Z,-1.36
2023-02-25T14:25:51.057Z,-1.31
2023-02-25T14:28:27.349Z,-1.36
2023-02-25T14:31:20.504Z,-1.35
2023-02-25T14:33:48.707Z,-1.33
2023-02-25T14:36:27.907Z,-1.36
2023-02-25T14:39:21.702Z,-1.37
2023-02-25T14:42:26.235Z,-1.39
2023-02-25T14:45:01.171Z,-1.38
2023-02-25T14:48:06.152Z,-1.34
2023-02-25T14:50:54.362Z,-1.27
2023-02-25T14:54:06.428Z,-1.26
2023-02-25T14:56:51.693Z,-1.23
2023-02-25T14:59:29.921Z,-1.20
2023-02-25T15:02:16.977Z,-1.17
2023-02-25T15:05:23.645Z,-1.16
2023-02-25T15:08:18.958Z,-1.11
2023-02-25T15:10:58.424Z,-1.12
2023-02-25T15:13:38.352Z,-1.16
2023-02-25T15:16:44.762Z,-1.19
2023-02-25T15:19:16.950Z,-1.18
2023-02-25T15:21:46.652Z,-1.19
2023-02-25T15:24:25.972Z,-1.22
2023-02-25T15:26:55.131Z,-1.18
2023-02-25T15:29:28.555Z,-1.20
2023-02-25T15:32:24.524Z,-1.21
2023-02-25T15:35:13.971Z,-1.25
2023-02-25T15:37:50.081Z,-1.24
2023-02-25T15:40:17.073Z,-1.29
2023-02-25T15:42:54.688Z,-1.41
2023-02-25T15:45:27.045Z,-1.42
2023-02-25T15:48:06.596Z,-1.40
2023-02-25T15:50:42.658Z,-1.44
2023-02-25T15:53:11.381Z,-1.48
2023-02-25T15:55:45.963Z,-1.49
2023-02-25T15:58:25.246Z,-1.51
2023-02-25T16:01:00.857Z,-1.55
2023-02-25T16:03:34.791Z,-1.60
2023-02-25T16:06:04.743Z,-1.71
2023-02-25T16:09:00.927Z,-1.74
2023-02-25T16:11:56.129Z,-1.73
2023-02-25T16:14:28.404Z,-1.77
2023-02-25T16:16:58.542Z,-1.78
2023-02-25T16:19:28.839Z,-1.80
2023-02-25T16:22:04.634Z,-1.78
2023-02-25T16:24:32.440Z,-1.81
2023-02-25T16:26:59.431Z,-1.84
2023-02-25T16:30:02.711Z,-1.92
2023-02-25T16:32:55.015Z,-1.92
2023-02-25T16:35:39.604Z,-1.90
2023-02-25T16:38:19.578Z,-1.93
2023-02-25T16:40:46.788Z,-1.90
2023-02-25T16:43:26.836Z,-1.89
2023-02-25T16:46:05.509Z,-1.92
2023-02-25T16:48:53.376Z,-1.92
2023-02-25T16:51:26.597Z,-1.95
2023-02-25T16:54:01.192Z,-1.98
2023-02-25T16:56:30.488Z,-1.96
2023-02-25T16:59:09.631Z,-1.91
2023-02-25T17:01:50.342Z,-1.93
2023-02-25T17:04:32.318Z,-1.94
2023-02-25T17:07:28.142Z,-1.95
2023-02-25T17:10:01.835Z,-1.94
2023-02-25T17:12:41.331Z,-1.96
2023-02-25T17:15:21.477Z,-1.97
2023-02-25T17:18:12.971Z,-2.00
2023-02-25T17:20:41.288Z,-1.96
2023-02-25T17:23:12.181Z,-1.93
2023-02-25T17:25:46.263Z,-2.02
2023-02-25T17:28:22.404Z,-2.02
2023-02-25T17:30:50.419Z,-2.03
2023-02-25T17:33:28.195Z,-2.03
2023-02-25T17:36:05.103Z,-2.06
2023-02-25T17:38:32.395Z,-2.08
2023-02-25T17:41:00.174Z,-2.13
2023-02-25T17:43:37.722Z,-2.10
2023-02-25T17:46:30.134Z,-2.09
2023-02-25T17:49:00.146Z,-2.13
2023-02-25T17:51:33.859Z,-2.10
2023-02-25T17:54:19.917Z,-2.11
2023-02-25T17:56:56.539Z,-2.10
2023-02-25T17:59:38.227Z,-2.14
2023-02-25T18:02:31.146Z,-2.13
2023-02-25T18:05:13.216Z,-2.12
2023-02-25T18:07:42.649Z,-2.12
2023-02-25T18:10:33.469Z,-2.11
2023-02-25T18:13:06.723Z,-2.12
2023-02-25T18:15:34.548Z,-2.12
2023-02-25T18:18:07.916Z,-2.14
2023-02-25T18:20:40.943Z,-2.15
2023-02-25T18:23:19.694Z,-2.12
2023-02-25T18:26:13.841Z,-2.11
2023-02-25T18:28:44.778Z,-2.10
2023-02-25T18:31:14.319Z,-2.08
2023-02-25T18:33:59.503Z,-2.05
2023-02-25T18:36:33.558Z,-2.07
2023-02-25T18:39:03.784Z,-2.05
2023-02-25T18:41:30.876Z,-2.05
2023-02-25T18:43:57.931Z,-2.02
2023-02-25T18:46:30.810Z,-2.00
2023-02-25T18:49:11.001Z,-2.05
2023-02-25T18:51:41.178Z,-2.14
2023-02-25T18:54:14.964Z,-2.13
2023-02-25T18:56:42.455Z,-2.15
2023-02-25T18:59:14.156Z,-2.14
2023-02-25T19:01:47.548Z,-2.13
2023-02-25T19:04:21.673Z,-2.14
2023-02-25T19:06:51.605Z,-2.15
2023-02-25T19:09:22.361Z,-2.16
2023-02-25T19:11:53.184Z,-2.16
2023-02-25T19:14:21.607Z,-2.15
2023-02-25T19:16:49.342Z,-2.14
2023-02-25T19:19:16.533Z,-2.16
2023-02-25T19:21:43.574Z,-2.20
2023-02-25T19:24:12.389Z,-2.22
2023-02-25T19:26:45.829Z,-2.26
2023-02-25T19:29:12.875Z,-2.29
2023-02-25T19:31:41.336Z,-2.29
2023-02-25T19:34:10.782Z,-2.32
2023-02-25T19:36:38.188Z,-2.31
2023-02-25T19:39:06.611Z,-2.33
2023-02-25T19:41:33.812Z,-2.33
2023-02-25T19:44:04.362Z,-2.33
2023-02-25T19:46:34.412Z,-2.34
2023-02-25T19:49:05.307Z,-2.35
2023-02-25T19:51:38.387Z,-2.35
2023-02-25T19:54:06.096Z,-2.35
2023-02-25T19:56:36.344Z,-2.39
2023-02-25T19:59:08.391Z,-2.37
2023-02-25T20:01:35.506Z,-2.39
2023-02-25T20:04:03.411Z,-2.44
2023-02-25T20:06:35.509Z,-2.42
2023-02-25T20:09:05.522Z,-2.46
2023-02-25T20:11:33.327Z,-2.48
2023-02-25T20:14:01.122Z,-2.49
2023-02-25T20:16:28.199Z,-2.50
2023-02-25T20:18:58.337Z,-2.51
2023-02-25T20:21:29.537Z,-2.50
2023-02-25T20:23:58.890Z,-2.50
2023-02-25T20:26:29.085Z,-2.52
2023-02-25T20:28:57.408Z,-2.55
2023-02-25T20:31:26.353Z,-2.55
2023-02-25T20:33:56.194Z,-2.60
2023-02-25T20:36:25.436Z,-2.62
2023-02-25T20:39:34.672Z,-2.58
2023-02-25T20:42:03.483Z,-2.63
2023-02-25T20:44:34.328Z,-2.65
2023-02-25T20:47:01.691Z,-2.68
2023-02-25T20:49:29.049Z,-2.68
2023-02-25T20:51:56.951Z,-2.69
2023-02-25T20:54:24.164Z,-2.69
2023-02-25T20:56:51.556Z,-2.73
2023-02-25T20:59:22.445Z,-2.74
2023-02-25T21:01:49.876Z,-2.71
2023-02-25T21:04:19.908Z,-2.73
2023-02-25T21:06:47.104Z,-2.75
2023-02-25T21:09:14.678Z,-2.73
2023-02-25T21:11:45.370Z,-2.72
2023-02-25T21:14:13.633Z,-2.74
2023-02-25T21:16:41.486Z,-2.74
2023-02-25T21:19:09.535Z,-2.73
2023-02-25T21:21:37.803Z,-2.71
2023-02-25T21:24:12.809Z,-2.70
2023-02-25T21:26:40.301Z,-2.71
2023-02-25T21:29:10.576Z,-2.73
2023-02-25T21:31:38.972Z,-2.72
2023-02-25T21:34:09.201Z,-2.72
2023-02-25T21:36:36.397Z,-2.72
2023-02-25T21:39:03.981Z,-2.72
2023-02-25T21:41:31.165Z,-2.75
2023-02-25T21:43:58.164Z,-2.76
2023-02-25T21:46:28.986Z,-2.78
2023-02-25T21:48:56.123Z,-2.79
2023-02-25T21:51:25.341Z,-2.80
2023-02-25T21:53:55.439Z,-2.80
2023-02-25T21:56:23.677Z,-2.81
2023-02-25T21:58:55.935Z,-2.85
2023-02-25T22:01:27.850Z,-2.87
2023-02-25T22:03:55.234Z,-2.86
2023-02-25T22:06:23.890Z,-2.86
2023-02-25T22:08:53.174Z,-2.85
2023-02-25T22:11:23.766Z,-2.87
2023-02-25T22:13:51.021Z,-2.87
2023-02-25T22:16:18.350Z,-2.91
2023-02-25T22:18:45.727Z,-2.96
2023-02-25T22:21:16.305Z,-2.95
2023-02-25T22:23:46.421Z,-2.97
2023-02-25T22:26:16.526Z,-2.99
2023-02-25T22:28:46.425Z,-2.97
2023-02-25T22:31:16.804Z,-2.98
2023-02-25T22:33:45.322Z,-2.97
2023-02-25T22:36:16.347Z,-2.97
2023-02-25T22:38:45.557Z,-2.98
2023-02-25T22:41:16.009Z,-3.00
2023-02-25T22:43:49.725Z,-3.00
2023-02-25T22:46:22.822Z,-3.00
2023-02-25T22:48:54.864Z,-3.00
2023-02-25T22:51:28.767Z,-3.04
2023-02-25T22:53:57.638Z,-3.03
2023-02-25T22:56:28.206Z,-3.04
2023-02-25T22:58:58.375Z,-3.04
2023-02-25T23:01:26.124Z,-3.06
2023-02-25T23:04:02.225Z,-3.07
2023-02-25T23:06:43.568Z,-3.05
2023-02-25T23:09:16.152Z,-3.06
2023-02-25T23:11:45.470Z,-3.05
2023-02-25T23:14:18.472Z,-3.05
2023-02-25T23:16:46.498Z,-3.03
2023-02-25T23:19:17.147Z,-3.04
2023-02-25T23:21:48.546Z,-3.03
2023-02-25T23:24:19.544Z,-3.08
2023-02-25T23:26:50.966Z,-3.07
2023-02-25T23:29:21.435Z,-3.07
2023-02-25T23:31:52.919Z,-3.05
2023-02-25T23:34:26.201Z,-3.07
2023-02-25T23:37:16.125Z,-3.07
2023-02-25T23:39:51.926Z,-3.07
2023-02-25T23:42:19.070Z,-3.09
2023-02-25T23:45:00.098Z,-3.06
2023-02-25T23:47:33.993Z,-3.05
2023-02-25T23:50:15.854Z,-3.10
2023-02-25T23:52:47.481Z,-3.08
2023-02-25T23:55:15.234Z,-3.09
2023-02-25T23:57:53.036Z,-3.11
